sensor_id;sensor_type;location;lat;lon;timestamp;P1;durP1;ratioP1;P2;durP2;ratioP2
15699;SDS011;7950;42.744;23.174;2023-03-23T00:02:24;23.90;;;12.87;;
15699;SDS011;7950;42.744;23.174;2023-03-23T00:04:52;18.20;;;13.00;;
15699;SDS011;7950;42.744;23.174;2023-03-23T00:07:19;21.93;;;13.47;;
15699;SDS011;7950;42.744;23.174;2023-03-23T00:09:47;19.73;;;13.43;;
15699;SDS011;7950;42.744;23.174;2023-03-23T00:12:18;19.57;;;12.03;;
15699;SDS011;7950;42.744;23.174;2023-03-23T00:14:46;21.03;;;13.00;;
15699;SDS011;7950;42.744;23.174;2023-03-23T00:17:20;21.70;;;12.80;;
15699;SDS011;7950;42.744;23.174;2023-03-23T00:19:48;19.23;;;12.10;;
15699;SDS011;7950;42.744;23.174;2023-03-23T00:22:16;17.93;;;10.67;;
15699;SDS011;7950;42.744;23.174;2023-03-23T00:24:46;15.63;;;11.17;;
15699;SDS011;7950;42.744;23.174;2023-03-23T00:27:15;15.77;;;10.67;;
15699;SDS011;7950;42.744;23.174;2023-03-23T00:29:43;16.03;;;11.03;;
15699;SDS011;7950;42.744;23.174;2023-03-23T00:32:12;16.70;;;11.07;;
15699;SDS011;7950;42.744;23.174;2023-03-23T00:34:41;16.17;;;12.20;;
15699;SDS011;7950;42.744;23.174;2023-03-23T00:37:11;18.10;;;11.77;;
15699;SDS011;7950;42.744;23.174;2023-03-23T00:39:42;16.73;;;11.27;;
15699;SDS011;7950;42.744;23.174;2023-03-23T00:42:11;15.73;;;10.40;;
15699;SDS011;7950;42.744;23.174;2023-03-23T00:44:39;14.93;;;11.30;;
15699;SDS011;7950;42.744;23.174;2023-03-23T00:47:06;15.50;;;11.30;;
15699;SDS011;7950;42.744;23.174;2023-03-23T00:49:35;14.83;;;11.30;;
15699;SDS011;7950;42.744;23.174;2023-03-23T00:52:04;14.03;;;10.23;;
15699;SDS011;7950;42.744;23.174;2023-03-23T00:54:32;14.67;;;10.27;;
15699;SDS011;7950;42.744;23.174;2023-03-23T00:57:01;15.37;;;11.10;;
15699;SDS011;7950;42.744;23.174;2023-03-23T00:59:29;13.43;;;9.57;;
15699;SDS011;7950;42.744;23.174;2023-03-23T01:02:06;13.07;;;9.47;;
15699;SDS011;7950;42.744;23.174;2023-03-23T01:04:33;16.37;;;10.40;;
15699;SDS011;7950;42.744;23.174;2023-03-23T01:07:03;12.77;;;9.33;;
15699;SDS011;7950;42.744;23.174;2023-03-23T01:09:33;14.57;;;10.07;;
15699;SDS011;7950;42.744;23.174;2023-03-23T01:12:01;13.53;;;10.20;;
15699;SDS011;7950;42.744;23.174;2023-03-23T01:14:28;13.83;;;9.73;;
15699;SDS011;7950;42.744;23.174;2023-03-23T01:16:55;14.27;;;10.07;;
15699;SDS011;7950;42.744;23.174;2023-03-23T01:19:23;13.70;;;9.40;;
15699;SDS011;7950;42.744;23.174;2023-03-23T01:21:50;13.40;;;9.37;;
15699;SDS011;7950;42.744;23.174;2023-03-23T01:24:18;14.57;;;9.67;;
15699;SDS011;7950;42.744;23.174;2023-03-23T01:26:45;13.10;;;9.13;;
15699;SDS011;7950;42.744;23.174;2023-03-23T01:29:13;11.27;;;8.80;;
15699;SDS011;7950;42.744;23.174;2023-03-23T01:31:40;10.63;;;8.90;;
15699;SDS011;7950;42.744;23.174;2023-03-23T01:34:08;11.77;;;8.70;;
15699;SDS011;7950;42.744;23.174;2023-03-23T01:36:35;12.07;;;8.60;;
15699;SDS011;7950;42.744;23.174;2023-03-23T01:39:04;13.90;;;9.07;;
15699;SDS011;7950;42.744;23.174;2023-03-23T01:41:33;15.73;;;9.97;;
15699;SDS011;7950;42.744;23.174;2023-03-23T01:44:02;14.40;;;9.53;;
15699;SDS011;7950;42.744;23.174;2023-03-23T01:46:35;12.33;;;9.80;;
15699;SDS011;7950;42.744;23.174;2023-03-23T01:49:03;13.03;;;9.17;;
15699;SDS011;7950;42.744;23.174;2023-03-23T01:54:42;14.77;;;10.40;;
15699;SDS011;7950;42.744;23.174;2023-03-23T01:57:14;15.70;;;10.97;;
15699;SDS011;7950;42.744;23.174;2023-03-23T01:59:43;15.73;;;11.03;;
15699;SDS011;7950;42.744;23.174;2023-03-23T02:02:12;15.13;;;11.43;;
15699;SDS011;7950;42.744;23.174;2023-03-23T02:04:40;13.97;;;10.43;;
15699;SDS011;7950;42.744;23.174;2023-03-23T02:07:08;15.83;;;10.23;;
15699;SDS011;7950;42.744;23.174;2023-03-23T02:09:35;13.80;;;9.73;;
15699;SDS011;7950;42.744;23.174;2023-03-23T02:12:03;13.83;;;10.17;;
15699;SDS011;7950;42.744;23.174;2023-03-23T02:17:25;13.20;;;9.63;;
15699;SDS011;7950;42.744;23.174;2023-03-23T02:20:13;17.10;;;10.63;;
15699;SDS011;7950;42.744;23.174;2023-03-23T02:26:01;15.73;;;10.73;;
15699;SDS011;7950;42.744;23.174;2023-03-23T02:28:55;17.13;;;11.80;;
15699;SDS011;7950;42.744;23.174;2023-03-23T02:31:47;16.03;;;11.80;;
15699;SDS011;7950;42.744;23.174;2023-03-23T02:34:34;20.03;;;13.17;;
15699;SDS011;7950;42.744;23.174;2023-03-23T02:37:08;19.40;;;13.30;;
15699;SDS011;7950;42.744;23.174;2023-03-23T02:39:40;18.40;;;12.73;;
15699;SDS011;7950;42.744;23.174;2023-03-23T02:42:12;24.33;;;14.30;;
15699;SDS011;7950;42.744;23.174;2023-03-23T02:44:43;19.30;;;13.17;;
15699;SDS011;7950;42.744;23.174;2023-03-23T02:47:12;19.83;;;13.83;;
15699;SDS011;7950;42.744;23.174;2023-03-23T02:49:45;25.07;;;14.10;;
15699;SDS011;7950;42.744;23.174;2023-03-23T02:52:16;24.10;;;14.73;;
15699;SDS011;7950;42.744;23.174;2023-03-23T02:54:46;30.67;;;16.30;;
15699;SDS011;7950;42.744;23.174;2023-03-23T02:57:15;27.80;;;16.43;;
15699;SDS011;7950;42.744;23.174;2023-03-23T02:59:42;27.73;;;15.87;;
15699;SDS011;7950;42.744;23.174;2023-03-23T03:02:09;27.03;;;16.10;;
15699;SDS011;7950;42.744;23.174;2023-03-23T03:04:40;24.17;;;14.43;;
15699;SDS011;7950;42.744;23.174;2023-03-23T03:07:18;24.90;;;13.57;;
15699;SDS011;7950;42.744;23.174;2023-03-23T03:09:55;22.90;;;14.23;;
15699;SDS011;7950;42.744;23.174;2023-03-23T03:12:27;23.80;;;14.27;;
15699;SDS011;7950;42.744;23.174;2023-03-23T03:17:57;20.63;;;13.53;;
15699;SDS011;7950;42.744;23.174;2023-03-23T03:20:28;25.43;;;15.90;;
15699;SDS011;7950;42.744;23.174;2023-03-23T03:22:58;24.70;;;15.93;;
15699;SDS011;7950;42.744;23.174;2023-03-23T03:25:27;26.80;;;15.40;;
15699;SDS011;7950;42.744;23.174;2023-03-23T03:27:55;22.83;;;14.70;;
15699;SDS011;7950;42.744;23.174;2023-03-23T03:30:25;25.53;;;15.40;;
15699;SDS011;7950;42.744;23.174;2023-03-23T03:32:56;23.93;;;15.27;;
15699;SDS011;7950;42.744;23.174;2023-03-23T03:35:25;21.97;;;14.57;;
15699;SDS011;7950;42.744;23.174;2023-03-23T03:37:53;23.70;;;15.43;;
15699;SDS011;7950;42.744;23.174;2023-03-23T03:40:23;20.50;;;14.53;;
15699;SDS011;7950;42.744;23.174;2023-03-23T03:42:50;22.67;;;14.53;;
15699;SDS011;7950;42.744;23.174;2023-03-23T03:45:18;21.57;;;13.67;;
15699;SDS011;7950;42.744;23.174;2023-03-23T03:47:46;18.87;;;12.60;;
15699;SDS011;7950;42.744;23.174;2023-03-23T03:50:13;22.90;;;14.50;;
15699;SDS011;7950;42.744;23.174;2023-03-23T03:52:41;19.93;;;13.80;;
15699;SDS011;7950;42.744;23.174;2023-03-23T03:55:09;19.37;;;12.70;;
15699;SDS011;7950;42.744;23.174;2023-03-23T03:57:48;19.20;;;13.43;;
15699;SDS011;7950;42.744;23.174;2023-03-23T04:00:16;21.03;;;13.43;;
15699;SDS011;7950;42.744;23.174;2023-03-23T04:02:44;18.30;;;12.40;;
15699;SDS011;7950;42.744;23.174;2023-03-23T04:05:16;18.37;;;12.53;;
15699;SDS011;7950;42.744;23.174;2023-03-23T04:07:45;17.93;;;12.77;;
15699;SDS011;7950;42.744;23.174;2023-03-23T04:10:14;17.30;;;11.83;;
15699;SDS011;7950;42.744;23.174;2023-03-23T04:12:45;17.67;;;13.10;;
15699;SDS011;7950;42.744;23.174;2023-03-23T04:15:13;19.57;;;13.13;;
15699;SDS011;7950;42.744;23.174;2023-03-23T04:17:40;21.37;;;13.93;;
15699;SDS011;7950;42.744;23.174;2023-03-23T04:20:08;21.23;;;13.57;;
15699;SDS011;7950;42.744;23.174;2023-03-23T04:22:41;18.87;;;13.77;;
15699;SDS011;7950;42.744;23.174;2023-03-23T04:25:10;20.50;;;13.60;;
15699;SDS011;7950;42.744;23.174;2023-03-23T04:27:39;18.13;;;11.60;;
15699;SDS011;7950;42.744;23.174;2023-03-23T04:30:28;17.27;;;11.60;;
15699;SDS011;7950;42.744;23.174;2023-03-23T04:32:57;18.33;;;12.30;;
15699;SDS011;7950;42.744;23.174;2023-03-23T04:38:04;17.87;;;12.87;;
15699;SDS011;7950;42.744;23.174;2023-03-23T04:40:32;19.77;;;13.00;;
15699;SDS011;7950;42.744;23.174;2023-03-23T04:43:02;18.37;;;12.63;;
15699;SDS011;7950;42.744;23.174;2023-03-23T04:45:32;19.27;;;13.20;;
15699;SDS011;7950;42.744;23.174;2023-03-23T04:48:03;17.50;;;12.50;;
15699;SDS011;7950;42.744;23.174;2023-03-23T04:50:32;18.30;;;14.23;;
15699;SDS011;7950;42.744;23.174;2023-03-23T04:53:00;23.83;;;15.77;;
15699;SDS011;7950;42.744;23.174;2023-03-23T04:55:29;24.80;;;17.23;;
15699;SDS011;7950;42.744;23.174;2023-03-23T04:57:57;25.37;;;16.50;;
15699;SDS011;7950;42.744;23.174;2023-03-23T05:00:26;19.63;;;14.63;;
15699;SDS011;7950;42.744;23.174;2023-03-23T05:02:55;23.10;;;15.10;;
15699;SDS011;7950;42.744;23.174;2023-03-23T05:05:22;20.77;;;14.00;;
15699;SDS011;7950;42.744;23.174;2023-03-23T05:07:50;20.17;;;13.90;;
15699;SDS011;7950;42.744;23.174;2023-03-23T05:10:18;20.67;;;13.53;;
15699;SDS011;7950;42.744;23.174;2023-03-23T05:12:52;30.27;;;16.10;;
15699;SDS011;7950;42.744;23.174;2023-03-23T05:15:19;28.57;;;15.80;;
15699;SDS011;7950;42.744;23.174;2023-03-23T05:17:47;26.33;;;14.93;;
15699;SDS011;7950;42.744;23.174;2023-03-23T05:20:21;44.30;;;16.87;;
15699;SDS011;7950;42.744;23.174;2023-03-23T05:22:48;29.10;;;15.83;;
15699;SDS011;7950;42.744;23.174;2023-03-23T05:25:16;31.33;;;16.17;;
15699;SDS011;7950;42.744;23.174;2023-03-23T05:27:45;41.87;;;16.93;;
15699;SDS011;7950;42.744;23.174;2023-03-23T05:30:14;49.70;;;18.10;;
15699;SDS011;7950;42.744;23.174;2023-03-23T05:32:42;51.80;;;16.23;;
15699;SDS011;7950;42.744;23.174;2023-03-23T05:35:10;54.93;;;17.73;;
15699;SDS011;7950;42.744;23.174;2023-03-23T05:37:39;33.63;;;18.40;;
15699;SDS011;7950;42.744;23.174;2023-03-23T05:40:07;42.80;;;18.03;;
15699;SDS011;7950;42.744;23.174;2023-03-23T05:42:35;59.40;;;19.13;;
15699;SDS011;7950;42.744;23.174;2023-03-23T05:45:02;49.53;;;17.73;;
15699;SDS011;7950;42.744;23.174;2023-03-23T05:47:31;40.33;;;19.23;;
15699;SDS011;7950;42.744;23.174;2023-03-23T05:49:58;37.00;;;18.73;;
15699;SDS011;7950;42.744;23.174;2023-03-23T05:52:25;42.97;;;20.53;;
15699;SDS011;7950;42.744;23.174;2023-03-23T05:54:54;43.67;;;19.77;;
15699;SDS011;7950;42.744;23.174;2023-03-23T05:57:21;28.97;;;18.27;;
15699;SDS011;7950;42.744;23.174;2023-03-23T05:59:49;36.40;;;18.13;;
15699;SDS011;7950;42.744;23.174;2023-03-23T06:02:16;31.60;;;19.27;;
15699;SDS011;7950;42.744;23.174;2023-03-23T06:04:43;24.73;;;17.03;;
15699;SDS011;7950;42.744;23.174;2023-03-23T06:07:10;25.90;;;18.03;;
15699;SDS011;7950;42.744;23.174;2023-03-23T06:09:39;29.30;;;19.70;;
15699;SDS011;7950;42.744;23.174;2023-03-23T06:12:09;23.60;;;17.40;;
15699;SDS011;7950;42.744;23.174;2023-03-23T06:14:36;36.47;;;23.40;;
15699;SDS011;7950;42.744;23.174;2023-03-23T06:17:04;32.17;;;22.60;;
15699;SDS011;7950;42.744;23.174;2023-03-23T06:19:31;29.87;;;22.30;;
15699;SDS011;7950;42.744;23.174;2023-03-23T06:21:59;31.37;;;22.93;;
15699;SDS011;7950;42.744;23.174;2023-03-23T06:24:27;27.10;;;19.37;;
15699;SDS011;7950;42.744;23.174;2023-03-23T06:26:54;27.03;;;18.97;;
15699;SDS011;7950;42.744;23.174;2023-03-23T06:29:24;27.47;;;18.33;;
15699;SDS011;7950;42.744;23.174;2023-03-23T06:31:52;26.93;;;20.03;;
15699;SDS011;7950;42.744;23.174;2023-03-23T06:34:22;28.90;;;21.57;;
15699;SDS011;7950;42.744;23.174;2023-03-23T06:36:49;31.10;;;21.87;;
15699;SDS011;7950;42.744;23.174;2023-03-23T06:39:17;34.53;;;23.50;;
15699;SDS011;7950;42.744;23.174;2023-03-23T06:41:44;28.47;;;20.70;;
15699;SDS011;7950;42.744;23.174;2023-03-23T06:44:11;26.37;;;19.20;;
15699;SDS011;7950;42.744;23.174;2023-03-23T06:46:40;24.07;;;18.50;;
15699;SDS011;7950;42.744;23.174;2023-03-23T06:49:08;24.97;;;18.90;;
15699;SDS011;7950;42.744;23.174;2023-03-23T06:51:36;22.20;;;17.17;;
15699;SDS011;7950;42.744;23.174;2023-03-23T06:54:03;23.67;;;17.50;;
15699;SDS011;7950;42.744;23.174;2023-03-23T06:56:31;27.33;;;18.87;;
15699;SDS011;7950;42.744;23.174;2023-03-23T06:58:58;26.37;;;19.13;;
15699;SDS011;7950;42.744;23.174;2023-03-23T07:01:25;28.87;;;20.50;;
15699;SDS011;7950;42.744;23.174;2023-03-23T07:03:55;29.73;;;21.17;;
15699;SDS011;7950;42.744;23.174;2023-03-23T07:06:23;24.87;;;18.23;;
15699;SDS011;7950;42.744;23.174;2023-03-23T07:08:51;20.60;;;15.97;;
15699;SDS011;7950;42.744;23.174;2023-03-23T07:11:18;22.00;;;16.33;;
15699;SDS011;7950;42.744;23.174;2023-03-23T07:13:46;17.73;;;13.33;;
15699;SDS011;7950;42.744;23.174;2023-03-23T07:16:15;22.57;;;17.03;;
15699;SDS011;7950;42.744;23.174;2023-03-23T07:18:43;45.67;;;24.90;;
15699;SDS011;7950;42.744;23.174;2023-03-23T07:21:11;32.63;;;21.80;;
15699;SDS011;7950;42.744;23.174;2023-03-23T07:23:39;45.77;;;28.50;;
15699;SDS011;7950;42.744;23.174;2023-03-23T07:26:06;29.27;;;19.90;;
15699;SDS011;7950;42.744;23.174;2023-03-23T07:28:33;19.53;;;14.93;;
15699;SDS011;7950;42.744;23.174;2023-03-23T07:33:49;19.87;;;14.47;;
15699;SDS011;7950;42.744;23.174;2023-03-23T07:36:18;18.07;;;13.10;;
15699;SDS011;7950;42.744;23.174;2023-03-23T07:38:45;23.37;;;14.77;;
15699;SDS011;7950;42.744;23.174;2023-03-23T07:41:13;17.37;;;13.63;;
15699;SDS011;7950;42.744;23.174;2023-03-23T07:43:40;16.27;;;13.30;;
15699;SDS011;7950;42.744;23.174;2023-03-23T07:46:07;14.53;;;12.60;;
15699;SDS011;7950;42.744;23.174;2023-03-23T07:48:34;16.17;;;12.37;;
15699;SDS011;7950;42.744;23.174;2023-03-23T07:51:03;17.53;;;13.03;;
15699;SDS011;7950;42.744;23.174;2023-03-23T07:53:32;14.67;;;11.67;;
15699;SDS011;7950;42.744;23.174;2023-03-23T07:56:00;13.00;;;10.67;;
15699;SDS011;7950;42.744;23.174;2023-03-23T07:58:28;12.17;;;10.67;;
15699;SDS011;7950;42.744;23.174;2023-03-23T08:00:55;13.57;;;11.27;;
15699;SDS011;7950;42.744;23.174;2023-03-23T08:03:23;13.43;;;11.00;;
15699;SDS011;7950;42.744;23.174;2023-03-23T08:05:50;13.93;;;10.87;;
15699;SDS011;7950;42.744;23.174;2023-03-23T08:08:17;13.47;;;10.47;;
15699;SDS011;7950;42.744;23.174;2023-03-23T08:10:46;13.27;;;10.53;;
15699;SDS011;7950;42.744;23.174;2023-03-23T08:13:13;16.80;;;12.30;;
15699;SDS011;7950;42.744;23.174;2023-03-23T08:15:40;14.43;;;11.57;;
15699;SDS011;7950;42.744;23.174;2023-03-23T08:18:08;12.87;;;11.13;;
15699;SDS011;7950;42.744;23.174;2023-03-23T08:20:35;15.27;;;12.43;;
15699;SDS011;7950;42.744;23.174;2023-03-23T08:23:03;13.10;;;10.27;;
15699;SDS011;7950;42.744;23.174;2023-03-23T08:25:31;15.63;;;11.17;;
15699;SDS011;7950;42.744;23.174;2023-03-23T08:31:05;11.57;;;9.93;;
15699;SDS011;7950;42.744;23.174;2023-03-23T08:33:33;12.10;;;9.80;;
15699;SDS011;7950;42.744;23.174;2023-03-23T08:36:01;12.50;;;9.90;;
15699;SDS011;7950;42.744;23.174;2023-03-23T08:38:28;11.23;;;9.00;;
15699;SDS011;7950;42.744;23.174;2023-03-23T08:43:49;13.07;;;9.93;;
15699;SDS011;7950;42.744;23.174;2023-03-23T08:46:17;15.47;;;11.13;;
15699;SDS011;7950;42.744;23.174;2023-03-23T08:48:54;13.33;;;9.80;;
15699;SDS011;7950;42.744;23.174;2023-03-23T08:51:21;11.23;;;9.60;;
15699;SDS011;7950;42.744;23.174;2023-03-23T08:53:49;9.17;;;7.60;;
15699;SDS011;7950;42.744;23.174;2023-03-23T08:56:17;10.33;;;8.10;;
15699;SDS011;7950;42.744;23.174;2023-03-23T08:58:45;11.60;;;8.90;;
15699;SDS011;7950;42.744;23.174;2023-03-23T09:01:14;12.47;;;9.57;;
15699;SDS011;7950;42.744;23.174;2023-03-23T09:03:41;13.27;;;9.27;;
15699;SDS011;7950;42.744;23.174;2023-03-23T09:06:09;12.30;;;9.77;;
15699;SDS011;7950;42.744;23.174;2023-03-23T09:08:37;11.03;;;8.77;;
15699;SDS011;7950;42.744;23.174;2023-03-23T09:11:06;8.67;;;7.30;;
15699;SDS011;7950;42.744;23.174;2023-03-23T09:13:35;8.50;;;7.17;;
15699;SDS011;7950;42.744;23.174;2023-03-23T09:16:03;8.10;;;6.63;;
15699;SDS011;7950;42.744;23.174;2023-03-23T09:18:32;9.60;;;8.60;;
15699;SDS011;7950;42.744;23.174;2023-03-23T09:21:00;12.23;;;9.50;;
15699;SDS011;7950;42.744;23.174;2023-03-23T09:23:28;9.77;;;8.47;;
15699;SDS011;7950;42.744;23.174;2023-03-23T09:25:56;9.60;;;8.57;;
15699;SDS011;7950;42.744;23.174;2023-03-23T09:28:25;10.57;;;7.93;;
15699;SDS011;7950;42.744;23.174;2023-03-23T09:30:54;8.10;;;7.30;;
15699;SDS011;7950;42.744;23.174;2023-03-23T09:33:22;10.67;;;8.57;;
15699;SDS011;7950;42.744;23.174;2023-03-23T09:35:52;10.43;;;8.43;;
15699;SDS011;7950;42.744;23.174;2023-03-23T09:38:19;8.83;;;7.20;;
15699;SDS011;7950;42.744;23.174;2023-03-23T09:40:47;10.77;;;8.57;;
15699;SDS011;7950;42.744;23.174;2023-03-23T09:43:27;9.70;;;8.17;;
15699;SDS011;7950;42.744;23.174;2023-03-23T09:46:07;10.73;;;8.83;;
15699;SDS011;7950;42.744;23.174;2023-03-23T09:49:05;10.13;;;8.40;;
15699;SDS011;7950;42.744;23.174;2023-03-23T09:51:40;11.00;;;9.13;;
15699;SDS011;7950;42.744;23.174;2023-03-23T09:54:12;11.20;;;8.70;;
15699;SDS011;7950;42.744;23.174;2023-03-23T09:56:43;11.80;;;9.10;;
15699;SDS011;7950;42.744;23.174;2023-03-23T09:59:12;12.03;;;8.70;;
15699;SDS011;7950;42.744;23.174;2023-03-23T10:01:44;11.83;;;9.13;;
15699;SDS011;7950;42.744;23.174;2023-03-23T10:04:15;11.13;;;9.23;;
15699;SDS011;7950;42.744;23.174;2023-03-23T10:06:55;10.77;;;9.37;;
15699;SDS011;7950;42.744;23.174;2023-03-23T10:09:25;13.17;;;9.17;;
15699;SDS011;7950;42.744;23.174;2023-03-23T10:11:58;11.83;;;9.60;;
15699;SDS011;7950;42.744;23.174;2023-03-23T10:14:41;10.60;;;9.50;;
15699;SDS011;7950;42.744;23.174;2023-03-23T10:17:26;11.03;;;9.13;;
15699;SDS011;7950;42.744;23.174;2023-03-23T10:19:57;10.27;;;8.30;;
15699;SDS011;7950;42.744;23.174;2023-03-23T10:22:35;8.30;;;7.40;;
15699;SDS011;7950;42.744;23.174;2023-03-23T10:25:08;11.87;;;8.43;;
15699;SDS011;7950;42.744;23.174;2023-03-23T10:27:43;10.63;;;8.27;;
15699;SDS011;7950;42.744;23.174;2023-03-23T10:30:17;8.97;;;7.97;;
15699;SDS011;7950;42.744;23.174;2023-03-23T10:32:50;7.80;;;7.00;;
15699;SDS011;7950;42.744;23.174;2023-03-23T10:35:21;8.63;;;6.80;;
15699;SDS011;7950;42.744;23.174;2023-03-23T10:37:54;9.30;;;7.47;;
15699;SDS011;7950;42.744;23.174;2023-03-23T10:40:25;10.47;;;8.83;;
15699;SDS011;7950;42.744;23.174;2023-03-23T10:48:53;9.30;;;6.80;;
15699;SDS011;7950;42.744;23.174;2023-03-23T10:51:25;8.17;;;7.07;;
15699;SDS011;7950;42.744;23.174;2023-03-23T10:54:00;11.67;;;8.50;;
15699;SDS011;7950;42.744;23.174;2023-03-23T10:56:34;13.10;;;9.00;;
15699;SDS011;7950;42.744;23.174;2023-03-23T11:02:21;10.60;;;8.37;;
15699;SDS011;7950;42.744;23.174;2023-03-23T11:04:54;9.73;;;8.20;;
15699;SDS011;7950;42.744;23.174;2023-03-23T11:10:40;9.33;;;7.33;;
15699;SDS011;7950;42.744;23.174;2023-03-23T11:13:14;8.40;;;7.27;;
15699;SDS011;7950;42.744;23.174;2023-03-23T11:15:45;10.70;;;7.67;;
15699;SDS011;7950;42.744;23.174;2023-03-23T11:21:08;8.07;;;6.80;;
15699;SDS011;7950;42.744;23.174;2023-03-23T11:23:39;8.93;;;6.57;;
15699;SDS011;7950;42.744;23.174;2023-03-23T11:26:12;7.90;;;6.97;;
15699;SDS011;7950;42.744;23.174;2023-03-23T11:28:43;7.97;;;6.83;;
15699;SDS011;7950;42.744;23.174;2023-03-23T11:31:15;8.17;;;7.37;;
15699;SDS011;7950;42.744;23.174;2023-03-23T11:33:47;8.03;;;6.97;;
15699;SDS011;7950;42.744;23.174;2023-03-23T11:36:18;8.37;;;6.87;;
15699;SDS011;7950;42.744;23.174;2023-03-23T11:38:51;9.07;;;6.70;;
15699;SDS011;7950;42.744;23.174;2023-03-23T11:41:24;8.07;;;7.27;;
15699;SDS011;7950;42.744;23.174;2023-03-23T11:43:55;9.87;;;7.87;;
15699;SDS011;7950;42.744;23.174;2023-03-23T11:46:30;7.80;;;6.60;;
15699;SDS011;7950;42.744;23.174;2023-03-23T11:49:02;7.50;;;6.70;;
15699;SDS011;7950;42.744;23.174;2023-03-23T11:51:36;8.07;;;7.03;;
15699;SDS011;7950;42.744;23.174;2023-03-23T11:54:09;8.33;;;7.00;;
15699;SDS011;7950;42.744;23.174;2023-03-23T11:56:44;8.10;;;7.17;;
15699;SDS011;7950;42.744;23.174;2023-03-23T11:59:12;7.30;;;6.57;;
15699;SDS011;7950;42.744;23.174;2023-03-23T12:01:47;7.27;;;5.97;;
15699;SDS011;7950;42.744;23.174;2023-03-23T12:04:33;8.93;;;6.40;;
15699;SDS011;7950;42.744;23.174;2023-03-23T12:07:13;7.07;;;5.83;;
15699;SDS011;7950;42.744;23.174;2023-03-23T12:09:51;7.73;;;6.87;;
15699;SDS011;7950;42.744;23.174;2023-03-23T12:12:30;8.43;;;6.60;;
15699;SDS011;7950;42.744;23.174;2023-03-23T12:15:07;7.67;;;6.87;;
15699;SDS011;7950;42.744;23.174;2023-03-23T12:17:44;6.67;;;5.97;;
15699;SDS011;7950;42.744;23.174;2023-03-23T12:20:25;8.53;;;6.80;;
15699;SDS011;7950;42.744;23.174;2023-03-23T12:28:54;7.60;;;6.63;;
15699;SDS011;7950;42.744;23.174;2023-03-23T12:34:53;8.33;;;7.43;;
15699;SDS011;7950;42.744;23.174;2023-03-23T12:37:31;7.80;;;6.53;;
15699;SDS011;7950;42.744;23.174;2023-03-23T12:43:03;9.10;;;6.80;;
15699;SDS011;7950;42.744;23.174;2023-03-23T12:45:47;6.60;;;5.90;;
15699;SDS011;7950;42.744;23.174;2023-03-23T12:48:26;7.60;;;6.50;;
15699;SDS011;7950;42.744;23.174;2023-03-23T12:51:02;11.87;;;6.83;;
15699;SDS011;7950;42.744;23.174;2023-03-23T12:53:36;6.83;;;6.23;;
15699;SDS011;7950;42.744;23.174;2023-03-23T12:56:12;8.23;;;6.60;;
15699;SDS011;7950;42.744;23.174;2023-03-23T12:58:44;7.53;;;6.23;;
15699;SDS011;7950;42.744;23.174;2023-03-23T13:01:16;7.30;;;6.60;;
15699;SDS011;7950;42.744;23.174;2023-03-23T13:03:49;7.67;;;6.80;;
15699;SDS011;7950;42.744;23.174;2023-03-23T13:06:22;6.93;;;6.00;;
15699;SDS011;7950;42.744;23.174;2023-03-23T13:08:55;6.63;;;5.90;;
15699;SDS011;7950;42.744;23.174;2023-03-23T13:11:28;8.00;;;6.87;;
15699;SDS011;7950;42.744;23.174;2023-03-23T13:14:05;6.63;;;5.90;;
15699;SDS011;7950;42.744;23.174;2023-03-23T13:16:43;7.27;;;5.97;;
15699;SDS011;7950;42.744;23.174;2023-03-23T13:19:44;7.97;;;5.87;;
15699;SDS011;7950;42.744;23.174;2023-03-23T13:22:24;7.07;;;5.80;;
15699;SDS011;7950;42.744;23.174;2023-03-23T13:27:58;6.50;;;5.87;;
15699;SDS011;7950;42.744;23.174;2023-03-23T13:30:26;6.97;;;6.27;;
15699;SDS011;7950;42.744;23.174;2023-03-23T13:33:02;7.40;;;6.47;;
15699;SDS011;7950;42.744;23.174;2023-03-23T13:35:33;6.90;;;6.10;;
15699;SDS011;7950;42.744;23.174;2023-03-23T13:40:56;7.17;;;6.47;;
15699;SDS011;7950;42.744;23.174;2023-03-23T13:43:28;7.00;;;6.23;;
15699;SDS011;7950;42.744;23.174;2023-03-23T13:46:06;5.80;;;5.30;;
15699;SDS011;7950;42.744;23.174;2023-03-23T13:48:42;7.40;;;5.57;;
15699;SDS011;7950;42.744;23.174;2023-03-23T13:51:25;6.10;;;5.43;;
15699;SDS011;7950;42.744;23.174;2023-03-23T13:54:12;6.00;;;5.40;;
15699;SDS011;7950;42.744;23.174;2023-03-23T13:56:42;6.57;;;5.87;;
15699;SDS011;7950;42.744;23.174;2023-03-23T13:59:15;6.63;;;5.00;;
15699;SDS011;7950;42.744;23.174;2023-03-23T14:01:43;5.60;;;5.10;;
15699;SDS011;7950;42.744;23.174;2023-03-23T14:04:13;7.17;;;5.67;;
15699;SDS011;7950;42.744;23.174;2023-03-23T14:06:43;5.67;;;5.10;;
15699;SDS011;7950;42.744;23.174;2023-03-23T14:09:12;5.67;;;5.13;;
15699;SDS011;7950;42.744;23.174;2023-03-23T14:11:46;7.03;;;4.90;;
15699;SDS011;7950;42.744;23.174;2023-03-23T14:14:18;6.93;;;5.27;;
15699;SDS011;7950;42.744;23.174;2023-03-23T14:16:50;6.60;;;5.67;;
15699;SDS011;7950;42.744;23.174;2023-03-23T14:19:21;6.27;;;5.27;;
15699;SDS011;7950;42.744;23.174;2023-03-23T14:21:50;6.17;;;5.00;;
15699;SDS011;7950;42.744;23.174;2023-03-23T14:24:21;7.30;;;5.67;;
15699;SDS011;7950;42.744;23.174;2023-03-23T14:26:50;7.60;;;5.30;;
15699;SDS011;7950;42.744;23.174;2023-03-23T14:29:19;6.03;;;5.00;;
15699;SDS011;7950;42.744;23.174;2023-03-23T14:34:43;6.10;;;5.50;;
15699;SDS011;7950;42.744;23.174;2023-03-23T14:37:13;6.00;;;5.40;;
15699;SDS011;7950;42.744;23.174;2023-03-23T14:39:43;7.73;;;6.07;;
15699;SDS011;7950;42.744;23.174;2023-03-23T14:42:13;6.43;;;5.73;;
15699;SDS011;7950;42.744;23.174;2023-03-23T14:44:46;6.27;;;5.67;;
15699;SDS011;7950;42.744;23.174;2023-03-23T14:47:16;6.03;;;5.43;;
15699;SDS011;7950;42.744;23.174;2023-03-23T14:49:47;6.73;;;5.20;;
15699;SDS011;7950;42.744;23.174;2023-03-23T14:52:21;5.93;;;5.30;;
15699;SDS011;7950;42.744;23.174;2023-03-23T14:54:49;5.97;;;5.10;;
15699;SDS011;7950;42.744;23.174;2023-03-23T14:57:17;5.90;;;5.00;;
15699;SDS011;7950;42.744;23.174;2023-03-23T14:59:47;5.53;;;5.03;;
15699;SDS011;7950;42.744;23.174;2023-03-23T15:02:16;6.53;;;5.10;;
15699;SDS011;7950;42.744;23.174;2023-03-23T15:04:49;4.87;;;4.37;;
15699;SDS011;7950;42.744;23.174;2023-03-23T15:07:19;6.17;;;5.57;;
15699;SDS011;7950;42.744;23.174;2023-03-23T15:12:42;7.33;;;5.70;;
15699;SDS011;7950;42.744;23.174;2023-03-23T15:15:16;7.30;;;5.20;;
15699;SDS011;7950;42.744;23.174;2023-03-23T15:17:47;5.80;;;5.13;;
15699;SDS011;7950;42.744;23.174;2023-03-23T15:20:21;6.40;;;5.67;;
15699;SDS011;7950;42.744;23.174;2023-03-23T15:22:51;8.70;;;5.30;;
15699;SDS011;7950;42.744;23.174;2023-03-23T15:25:19;6.37;;;5.50;;
15699;SDS011;7950;42.744;23.174;2023-03-23T15:27:49;6.23;;;5.63;;
15699;SDS011;7950;42.744;23.174;2023-03-23T15:30:27;6.57;;;5.73;;
15699;SDS011;7950;42.744;23.174;2023-03-23T15:33:00;6.23;;;5.10;;
15699;SDS011;7950;42.744;23.174;2023-03-23T15:35:33;5.87;;;5.27;;
15699;SDS011;7950;42.744;23.174;2023-03-23T15:38:03;6.10;;;4.97;;
15699;SDS011;7950;42.744;23.174;2023-03-23T15:40:32;5.90;;;5.30;;
15699;SDS011;7950;42.744;23.174;2023-03-23T15:43:06;6.83;;;5.47;;
15699;SDS011;7950;42.744;23.174;2023-03-23T15:48:46;7.10;;;5.43;;
15699;SDS011;7950;42.744;23.174;2023-03-23T15:51:16;6.47;;;5.60;;
15699;SDS011;7950;42.744;23.174;2023-03-23T15:53:45;9.13;;;6.70;;
15699;SDS011;7950;42.744;23.174;2023-03-23T15:56:13;9.83;;;6.43;;
15699;SDS011;7950;42.744;23.174;2023-03-23T15:58:41;7.77;;;6.93;;
15699;SDS011;7950;42.744;23.174;2023-03-23T16:01:11;7.93;;;5.90;;